sensor_id;sensor_type;location;lat;lon;timestamp;pressure;altitude;pressure_sealevel;temperature;humidity
56894;BME280;43392;50.078;13.704;2023-04-21T00:02:19;96967.00;;;7.62;91.82
56894;BME280;43392;50.078;13.704;2023-04-21T00:04:46;96961.94;;;7.60;91.84
56894;BME280;43392;50.078;13.704;2023-04-21T00:07:14;96954.16;;;7.59;92.02
56894;BME280;43392;50.078;13.704;2023-04-21T00:09:42;96957.09;;;7.57;92.19
56894;BME280;43392;50.078;13.704;2023-04-21T00:12:08;96948.28;;;7.57;92.31
56894;BME280;43392;50.078;13.704;2023-04-21T00:14:35;96948.78;;;7.54;92.16
56894;BME280;43392;50.078;13.704;2023-04-21T00:17:01;96955.75;;;7.55;92.70
56894;BME280;43392;50.078;13.704;2023-04-21T00:19:28;96954.13;;;7.54;92.84
56894;BME280;43392;50.078;13.704;2023-04-21T00:21:55;96955.19;;;7.53;92.80
56894;BME280;43392;50.078;13.704;2023-04-21T00:24:25;96952.75;;;7.51;92.67
56894;BME280;43392;50.078;13.704;2023-04-21T00:26:53;96949.00;;;7.47;92.67
56894;BME280;43392;50.078;13.704;2023-04-21T00:29:19;96951.94;;;7.46;92.84
56894;BME280;43392;50.078;13.704;2023-04-21T00:31:46;96945.25;;;7.43;92.97
56894;BME280;43392;50.078;13.704;2023-04-21T00:34:12;96945.25;;;7.43;93.13
56894;BME280;43392;50.078;13.704;2023-04-21T00:36:39;96946.56;;;7.41;92.98
56894;BME280;43392;50.078;13.704;2023-04-21T00:39:06;96935.59;;;7.37;93.31
56894;BME280;43392;50.078;13.704;2023-04-21T00:41:33;96939.88;;;7.38;93.38
56894;BME280;43392;50.078;13.704;2023-04-21T00:44:02;96938.25;;;7.37;93.30
56894;BME280;43392;50.078;13.704;2023-04-21T00:46:29;96941.44;;;7.34;93.73
56894;BME280;43392;50.078;13.704;2023-04-21T00:48:56;96933.16;;;7.30;93.54
56894;BME280;43392;50.078;13.704;2023-04-21T00:51:23;96936.09;;;7.29;93.97
56894;BME280;43392;50.078;13.704;2023-04-21T00:53:50;96925.41;;;7.29;93.66
56894;BME280;43392;50.078;13.704;2023-04-21T00:56:17;96939.25;;;7.26;93.74
56894;BME280;43392;50.078;13.704;2023-04-21T00:58:44;96934.09;;;7.19;93.80
56894;BME280;43392;50.078;13.704;2023-04-21T01:01:13;96938.13;;;7.17;93.82
56894;BME280;43392;50.078;13.704;2023-04-21T01:03:41;96931.38;;;7.09;93.56
56894;BME280;43392;50.078;13.704;2023-04-21T01:06:08;96943.84;;;7.04;93.49
56894;BME280;43392;50.078;13.704;2023-04-21T01:08:35;96941.13;;;6.99;93.81
56894;BME280;43392;50.078;13.704;2023-04-21T01:11:08;96934.41;;;6.91;93.58
56894;BME280;43392;50.078;13.704;2023-04-21T01:13:34;96936.72;;;6.83;93.38
56894;BME280;43392;50.078;13.704;2023-04-21T01:16:01;96932.94;;;6.79;93.76
56894;BME280;43392;50.078;13.704;2023-04-21T01:18:29;96942.75;;;6.73;94.08
56894;BME280;43392;50.078;13.704;2023-04-21T01:20:56;96948.81;;;6.68;93.95
56894;BME280;43392;50.078;13.704;2023-04-21T01:23:24;96947.72;;;6.64;94.14
56894;BME280;43392;50.078;13.704;2023-04-21T01:25:51;96953.81;;;6.60;94.09
56894;BME280;43392;50.078;13.704;2023-04-21T01:28:20;96942.84;;;6.56;94.54
56894;BME280;43392;50.078;13.704;2023-04-21T01:30:47;96951.09;;;6.55;94.67
56894;BME280;43392;50.078;13.704;2023-04-21T01:33:14;96944.94;;;6.54;94.84
56894;BME280;43392;50.078;13.704;2023-04-21T01:35:41;96946.00;;;6.53;94.80
56894;BME280;43392;50.078;13.704;2023-04-21T01:38:08;96942.84;;;6.56;95.01
56894;BME280;43392;50.078;13.704;2023-04-21T01:40:36;96945.56;;;6.61;95.68
56894;BME280;43392;50.078;13.704;2023-04-21T01:43:04;96934.41;;;6.64;95.72
56894;BME280;43392;50.078;13.704;2023-04-21T01:45:30;96938.44;;;6.67;95.61
56894;BME280;43392;50.078;13.704;2023-04-21T01:47:57;96940.28;;;6.66;95.23
56894;BME280;43392;50.078;13.704;2023-04-21T01:50:24;96940.00;;;6.63;94.87
56894;BME280;43392;50.078;13.704;2023-04-21T01:52:50;96931.13;;;6.57;94.42
56894;BME280;43392;50.078;13.704;2023-04-21T01:55:17;96934.84;;;6.56;95.26
56894;BME280;43392;50.078;13.704;2023-04-21T01:57:45;96936.19;;;6.59;95.94
56894;BME280;43392;50.078;13.704;2023-04-21T02:00:12;96941.84;;;6.62;95.97
56894;BME280;43392;50.078;13.704;2023-04-21T02:02:39;96937.63;;;6.66;96.04
56894;BME280;43392;50.078;13.704;2023-04-21T02:05:06;96938.44;;;6.67;95.61
56894;BME280;43392;50.078;13.704;2023-04-21T02:07:33;96932.81;;;6.63;95.38
56894;BME280;43392;50.078;13.704;2023-04-21T02:10:00;96933.03;;;6.62;95.53
56894;BME280;43392;50.078;13.704;2023-04-21T02:12:27;96930.09;;;6.58;95.52
56894;BME280;43392;50.078;13.704;2023-04-21T02:14:55;96933.50;;;6.54;95.18
56894;BME280;43392;50.078;13.704;2023-04-21T02:17:21;96933.63;;;6.42;94.60
56894;BME280;43392;50.078;13.704;2023-04-21T02:19:48;96934.09;;;6.34;94.54
56894;BME280;43392;50.078;13.704;2023-04-21T02:22:14;96935.56;;;6.25;94.95
56894;BME280;43392;50.078;13.704;2023-04-21T02:24:41;96934.44;;;6.21;95.46
56894;BME280;43392;50.078;13.704;2023-04-21T02:27:07;96938.78;;;6.27;96.22
56894;BME280;43392;50.078;13.704;2023-04-21T02:29:34;96935.00;;;6.23;95.47
56894;BME280;43392;50.078;13.704;2023-04-21T02:32:02;96933.28;;;6.12;94.23
56894;BME280;43392;50.078;13.704;2023-04-21T02:34:29;96928.31;;;5.99;93.84
56894;BME280;43392;50.078;13.704;2023-04-21T02:36:55;96935.28;;;5.83;93.65
56894;BME280;43392;50.078;13.704;2023-04-21T02:39:22;96928.19;;;5.72;93.89
56894;BME280;43392;50.078;13.704;2023-04-21T02:41:48;96933.13;;;5.64;94.33
56894;BME280;43392;50.078;13.704;2023-04-21T02:44:15;96937.09;;;5.61;94.70
56894;BME280;43392;50.078;13.704;2023-04-21T02:46:42;96935.72;;;5.59;94.89
56894;BME280;43392;50.078;13.704;2023-04-21T02:49:10;96930.47;;;5.64;95.73
56894;BME280;43392;50.078;13.704;2023-04-21T02:51:36;96922.56;;;5.69;95.99
56894;BME280;43392;50.078;13.704;2023-04-21T02:54:03;96926.97;;;5.80;96.35
56894;BME280;43392;50.078;13.704;2023-04-21T02:56:30;96929.78;;;5.90;96.87
56894;BME280;43392;50.078;13.704;2023-04-21T02:58:58;96918.72;;;5.98;97.23
56894;BME280;43392;50.078;13.704;2023-04-21T03:01:25;96919.84;;;6.02;96.86
56894;BME280;43392;50.078;13.704;2023-04-21T03:03:51;96919.84;;;6.02;95.70
56894;BME280;43392;50.078;13.704;2023-04-21T03:06:19;96919.72;;;5.92;94.70
56894;BME280;43392;50.078;13.704;2023-04-21T03:08:46;96927.53;;;5.82;94.44
56894;BME280;43392;50.078;13.704;2023-04-21T03:11:13;96920.53;;;5.76;94.70
56894;BME280;43392;50.078;13.704;2023-04-21T03:13:39;96929.56;;;5.75;95.49
56894;BME280;43392;50.078;13.704;2023-04-21T03:16:06;96924.00;;;5.76;96.21
56894;BME280;43392;50.078;13.704;2023-04-21T03:18:33;96926.72;;;5.81;96.96
56894;BME280;43392;50.078;13.704;2023-04-21T03:21:00;96913.50;;;5.86;97.62
56894;BME280;43392;50.078;13.704;2023-04-21T03:23:28;96922.91;;;5.94;97.72
56894;BME280;43392;50.078;13.704;2023-04-21T03:25:54;96916.31;;;5.96;97.96
56894;BME280;43392;50.078;13.704;2023-04-21T03:28:21;96914.19;;;5.98;98.02
56894;BME280;43392;50.078;13.704;2023-04-21T03:30:47;96927.75;;;5.97;97.43
56894;BME280;43392;50.078;13.704;2023-04-21T03:33:14;96920.03;;;5.95;97.49
56894;BME280;43392;50.078;13.704;2023-04-21T03:35:41;96911.22;;;5.95;97.84
56894;BME280;43392;50.078;13.704;2023-04-21T03:38:07;96920.81;;;5.96;98.06
56894;BME280;43392;50.078;13.704;2023-04-21T03:40:36;96926.66;;;5.93;97.74
56894;BME280;43392;50.078;13.704;2023-04-21T03:43:02;96920.50;;;5.92;97.66
56894;BME280;43392;50.078;13.704;2023-04-21T03:45:29;96920.50;;;5.92;97.52
56894;BME280;43392;50.078;13.704;2023-04-21T03:47:55;96921.81;;;5.90;97.51
56894;BME280;43392;50.078;13.704;2023-04-21T03:50:22;96923.44;;;5.91;97.58
56894;BME280;43392;50.078;13.704;2023-04-21T03:52:49;96924.47;;;5.90;98.10
56894;BME280;43392;50.078;13.704;2023-04-21T03:55:15;96931.47;;;5.96;97.88
56894;BME280;43392;50.078;13.704;2023-04-21T03:57:43;96923.72;;;5.94;97.72
56894;BME280;43392;50.078;13.704;2023-04-21T04:00:11;96930.69;;;5.95;97.42
56894;BME280;43392;50.078;13.704;2023-04-21T04:02:38;96931.47;;;5.96;97.42
56894;BME280;43392;50.078;13.704;2023-04-21T04:05:06;96924.78;;;5.93;97.13
56894;BME280;43392;50.078;13.704;2023-04-21T04:07:33;96921.81;;;5.90;97.03
56894;BME280;43392;50.078;13.704;2023-04-21T04:10:00;96919.91;;;5.85;96.79
56894;BME280;43392;50.078;13.704;2023-04-21T04:12:26;96926.59;;;5.88;96.98
56894;BME280;43392;50.078;13.704;2023-04-21T04:14:54;96926.66;;;5.93;97.02
56894;BME280;43392;50.078;13.704;2023-04-21T04:17:21;96932.28;;;5.96;97.33
56894;BME280;43392;50.078;13.704;2023-04-21T04:19:48;96924.59;;;6.00;97.27
56894;BME280;43392;50.078;13.704;2023-04-21T04:22:15;96936.34;;;6.04;97.05
56894;BME280;43392;50.078;13.704;2023-04-21T04:24:41;96932.41;;;6.07;96.96
56894;BME280;43392;50.078;13.704;2023-04-21T04:27:09;96930.78;;;6.06;96.32
56894;BME280;43392;50.078;13.704;2023-04-21T04:29:38;96924.69;;;6.05;95.56
56894;BME280;43392;50.078;13.704;2023-04-21T04:32:06;96941.13;;;6.02;95.12
56894;BME280;43392;50.078;13.704;2023-04-21T04:34:34;96928.56;;;5.97;94.84
56894;BME280;43392;50.078;13.704;2023-04-21T04:37:01;96936.78;;;5.96;94.60
56894;BME280;43392;50.078;13.704;2023-04-21T04:39:29;96933.06;;;5.97;94.70
56894;BME280;43392;50.078;13.704;2023-04-21T04:41:56;96930.97;;;5.99;95.04
56894;BME280;43392;50.078;13.704;2023-04-21T04:44:23;96939.28;;;6.03;95.16
56894;BME280;43392;50.078;13.704;2023-04-21T04:46:50;96925.78;;;6.09;95.04
56894;BME280;43392;50.078;13.704;2023-04-21T04:49:19;96936.00;;;6.17;95.32
56894;BME280;43392;50.078;13.704;2023-04-21T04:51:46;96938.78;;;6.27;95.10
56894;BME280;43392;50.078;13.704;2023-04-21T04:54:12;96935.69;;;6.35;94.79
56894;BME280;43392;50.078;13.704;2023-04-21T04:56:39;96931.28;;;6.46;94.45
56894;BME280;43392;50.078;13.704;2023-04-21T04:59:06;96927.91;;;6.55;94.27
56894;BME280;43392;50.078;13.704;2023-04-21T05:01:32;96920.84;;;6.66;93.91
56894;BME280;43392;50.078;13.704;2023-04-21T05:03:59;96926.25;;;6.76;93.55
56894;BME280;43392;50.078;13.704;2023-04-21T05:06:27;96930.88;;;6.86;93.36
56894;BME280;43392;50.078;13.704;2023-04-21T05:08:54;96927.75;;;6.94;92.93
56894;BME280;43392;50.078;13.704;2023-04-21T05:11:20;96931.88;;;7.06;92.88
56894;BME280;43392;50.078;13.704;2023-04-21T05:13:47;96934.63;;;7.16;92.57
56894;BME280;43392;50.078;13.704;2023-04-21T05:16:14;96932.56;;;7.23;91.84
56894;BME280;43392;50.078;13.704;2023-04-21T05:18:40;96935.56;;;7.32;91.92
56894;BME280;43392;50.078;13.704;2023-04-21T05:21:07;96943.91;;;7.41;91.82
56894;BME280;43392;50.078;13.704;2023-04-21T05:23:35;96936.44;;;7.43;91.27
56894;BME280;43392;50.078;13.704;2023-04-21T05:26:01;96941.03;;;7.52;91.22
56894;BME280;43392;50.078;13.704;2023-04-21T05:28:28;96938.16;;;7.59;90.63
56894;BME280;43392;50.078;13.704;2023-04-21T05:30:55;96936.47;;;7.48;90.83
56894;BME280;43392;50.078;13.704;2023-04-21T05:33:22;96947.47;;;7.56;91.07
56894;BME280;43392;50.078;13.704;2023-04-21T05:35:50;96949.38;;;7.61;91.28
56894;BME280;43392;50.078;13.704;2023-04-21T05:38:17;96951.28;;;7.65;91.29
56894;BME280;43392;50.078;13.704;2023-04-21T05:40:51;96959.56;;;7.69;91.08
56894;BME280;43392;50.078;13.704;2023-04-21T05:43:18;96963.09;;;7.74;90.89
56894;BME280;43392;50.078;13.704;2023-04-21T05:45:45;96957.78;;;7.79;90.63
56894;BME280;43392;50.078;13.704;2023-04-21T05:48:11;96948.72;;;7.85;90.35
56894;BME280;43392;50.078;13.704;2023-04-21T05:50:38;96957.31;;;7.92;90.32
56894;BME280;43392;50.078;13.704;2023-04-21T05:53:04;96962.72;;;8.02;89.78
56894;BME280;43392;50.078;13.704;2023-04-21T05:55:33;96951.31;;;8.17;89.92
56894;BME280;43392;50.078;13.704;2023-04-21T05:58:01;96954.88;;;8.28;89.57
56894;BME280;43392;50.078;13.704;2023-04-21T06:00:28;96952.50;;;8.41;89.12
56894;BME280;43392;50.078;13.704;2023-04-21T06:02:55;96946.16;;;8.57;88.93
56894;BME280;43392;50.078;13.704;2023-04-21T06:05:21;96948.06;;;8.67;88.15
56894;BME280;43392;50.078;13.704;2023-04-21T06:07:48;96952.34;;;8.73;87.92
56894;BME280;43392;50.078;13.704;2023-04-21T06:10:16;96949.69;;;8.78;87.65
56894;BME280;43392;50.078;13.704;2023-04-21T06:12:42;96955.84;;;8.79;88.35
56894;BME280;43392;50.078;13.704;2023-04-21T06:15:10;96944.91;;;8.85;88.12
56894;BME280;43392;50.078;13.704;2023-04-21T06:17:37;96954.81;;;8.95;87.84
56894;BME280;43392;50.078;13.704;2023-04-21T06:20:05;96953.47;;;8.97;87.56
56894;BME280;43392;50.078;13.704;2023-04-21T06:22:33;96946.50;;;8.96;87.64
56894;BME280;43392;50.078;13.704;2023-04-21T06:24:59;96953.50;;;9.07;86.98
56894;BME280;43392;50.078;13.704;2023-04-21T06:27:26;96960.44;;;9.18;87.14
56894;BME280;43392;50.078;13.704;2023-04-21T06:29:53;96945.22;;;9.24;86.85
56894;BME280;43392;50.078;13.704;2023-04-21T06:32:21;96951.63;;;9.28;84.46
56894;BME280;43392;50.078;13.704;2023-04-21T06:34:48;96950.56;;;9.19;85.11
56894;BME280;43392;50.078;13.704;2023-04-21T06:37:14;96940.69;;;9.29;85.01
56894;BME280;43392;50.078;13.704;2023-04-21T06:39:41;96945.47;;;9.32;84.44
56894;BME280;43392;50.078;13.704;2023-04-21T06:42:07;96953.50;;;9.43;85.17
56894;BME280;43392;50.078;13.704;2023-04-21T06:44:34;96942.81;;;9.53;85.03
56894;BME280;43392;50.078;13.704;2023-04-21T06:47:02;96937.16;;;9.64;84.33
56894;BME280;43392;50.078;13.704;2023-04-21T06:49:30;96941.69;;;9.74;84.32
56894;BME280;43392;50.078;13.704;2023-04-21T06:51:58;96935.81;;;9.82;83.87
56894;BME280;43392;50.078;13.704;2023-04-21T06:54:24;96944.38;;;9.89;84.01
56894;BME280;43392;50.078;13.704;2023-04-21T06:56:51;96934.16;;;9.96;79.69
56894;BME280;43392;50.078;13.704;2023-04-21T06:59:17;96931.44;;;10.11;79.82
56894;BME280;43392;50.078;13.704;2023-04-21T07:01:44;96934.66;;;10.23;79.38
56894;BME280;43392;50.078;13.704;2023-04-21T07:04:13;96926.06;;;10.31;78.22
56894;BME280;43392;50.078;13.704;2023-04-21T07:06:41;96934.59;;;10.43;77.73
56894;BME280;43392;50.078;13.704;2023-04-21T07:09:08;96929.72;;;10.50;77.73
56894;BME280;43392;50.078;13.704;2023-04-21T07:11:35;96938.81;;;10.59;78.05
56894;BME280;43392;50.078;13.704;2023-04-21T07:14:02;96933.13;;;10.66;77.05
56894;BME280;43392;50.078;13.704;2023-04-21T07:16:28;96939.78;;;10.74;77.82
56894;BME280;43392;50.078;13.704;2023-04-21T07:18:55;96923.13;;;10.82;77.66
56894;BME280;43392;50.078;13.704;2023-04-21T07:21:22;96930.06;;;10.88;77.68
56894;BME280;43392;50.078;13.704;2023-04-21T07:23:50;96934.03;;;10.95;76.19
56894;BME280;43392;50.078;13.704;2023-04-21T07:26:16;96931.06;;;11.02;77.02
56894;BME280;43392;50.078;13.704;2023-04-21T07:28:43;96930.44;;;11.10;77.66
56894;BME280;43392;50.078;13.704;2023-04-21T07:31:10;96933.88;;;11.20;77.27
56894;BME280;43392;50.078;13.704;2023-04-21T07:33:36;96927.13;;;11.28;75.40
56894;BME280;43392;50.078;13.704;2023-04-21T07:36:03;96928.66;;;11.34;74.93
56894;BME280;43392;50.078;13.704;2023-04-21T07:38:30;96928.88;;;11.43;76.40
56894;BME280;43392;50.078;13.704;2023-04-21T07:40:58;96929.63;;;11.48;74.46
56894;BME280;43392;50.078;13.704;2023-04-21T07:43:25;96934.94;;;11.53;74.15
56894;BME280;43392;50.078;13.704;2023-04-21T07:45:53;96924.16;;;11.58;74.42
56894;BME280;43392;50.078;13.704;2023-04-21T07:48:20;96925.72;;;11.64;73.59
56894;BME280;43392;50.078;13.704;2023-04-21T07:50:47;96929.44;;;11.73;73.44
56894;BME280;43392;50.078;13.704;2023-04-21T07:53:14;96930.44;;;11.77;72.58
56894;BME280;43392;50.078;13.704;2023-04-21T07:55:41;96935.53;;;11.84;72.76
56894;BME280;43392;50.078;13.704;2023-04-21T07:58:09;96937.06;;;11.90;72.34
56894;BME280;43392;50.078;13.704;2023-04-21T08:00:35;96936.16;;;11.99;73.11
56894;BME280;43392;50.078;13.704;2023-04-21T08:03:02;96927.19;;;12.09;71.55
56894;BME280;43392;50.078;13.704;2023-04-21T08:05:29;96937.88;;;12.14;72.03
56894;BME280;43392;50.078;13.704;2023-04-21T08:07:56;96928.94;;;12.19;71.74
56894;BME280;43392;50.078;13.704;2023-04-21T08:10:23;96925.66;;;12.27;72.59
56894;BME280;43392;50.078;13.704;2023-04-21T08:12:50;96925.28;;;12.33;71.54
56894;BME280;43392;50.078;13.704;2023-04-21T08:15:18;96929.75;;;12.43;71.45
56894;BME280;43392;50.078;13.704;2023-04-21T08:17:44;96930.19;;;12.50;72.55
56894;BME280;43392;50.078;13.704;2023-04-21T08:20:12;96914.75;;;12.60;71.41
56894;BME280;43392;50.078;13.704;2023-04-21T08:22:39;96922.44;;;12.67;71.61
56894;BME280;43392;50.078;13.704;2023-04-21T08:25:06;96922.38;;;12.72;71.61
56894;BME280;43392;50.078;13.704;2023-04-21T08:27:33;96927.94;;;12.81;69.64
56894;BME280;43392;50.078;13.704;2023-04-21T08:29:59;96926.47;;;12.88;70.79
56894;BME280;43392;50.078;13.704;2023-04-21T08:32:27;96928.00;;;12.94;70.13
56894;BME280;43392;50.078;13.704;2023-04-21T08:34:54;96915.28;;;13.00;70.42
56894;BME280;43392;50.078;13.704;2023-04-21T08:37:21;96908.97;;;13.09;71.15
56894;BME280;43392;50.078;13.704;2023-04-21T08:39:48;96908.00;;;13.19;70.91
56894;BME280;43392;50.078;13.704;2023-04-21T08:42:16;96910.75;;;13.32;70.07
56894;BME280;43392;50.078;13.704;2023-04-21T08:44:44;96917.59;;;13.44;70.88
56894;BME280;43392;50.078;13.704;2023-04-21T08:47:12;96918.00;;;13.51;69.15
56894;BME280;43392;50.078;13.704;2023-04-21T08:49:41;96924.63;;;13.58;69.65
56894;BME280;43392;50.078;13.704;2023-04-21T08:52:11;96917.53;;;13.62;66.79
56894;BME280;43392;50.078;13.704;2023-04-21T08:54:37;96922.53;;;13.69;65.93
56894;BME280;43392;50.078;13.704;2023-04-21T08:57:04;96917.88;;;13.74;66.01
56894;BME280;43392;50.078;13.704;2023-04-21T08:59:31;96922.28;;;13.84;67.26
56894;BME280;43392;50.078;13.704;2023-04-21T09:02:11;96928.97;;;13.86;64.53
56894;BME280;43392;50.078;13.704;2023-04-21T09:04:41;96924.59;;;13.90;66.59
56894;BME280;43392;50.078;13.704;2023-04-21T09:07:08;96922.00;;;13.99;66.14
56894;BME280;43392;50.078;13.704;2023-04-21T09:09:51;96915.13;;;14.07;64.89
56894;BME280;43392;50.078;13.704;2023-04-21T09:12:18;96919.63;;;14.11;64.50
56894;BME280;43392;50.078;13.704;2023-04-21T09:14:45;96917.34;;;14.18;64.97
56894;BME280;43392;50.078;13.704;2023-04-21T09:17:13;96923.94;;;14.26;65.13
56894;BME280;43392;50.078;13.704;2023-04-21T09:19:42;96922.47;;;14.33;63.65
56894;BME280;43392;50.078;13.704;2023-04-21T09:22:08;96930.38;;;14.43;63.30
56894;BME280;43392;50.078;13.704;2023-04-21T09:24:44;96919.25;;;14.45;63.26
56894;BME280;43392;50.078;13.704;2023-04-21T09:27:11;96918.97;;;14.46;62.99
56894;BME280;43392;50.078;13.704;2023-04-21T09:29:38;96913.19;;;14.53;62.89
56894;BME280;43392;50.078;13.704;2023-04-21T09:32:10;96929.53;;;14.56;62.95
56894;BME280;43392;50.078;13.704;2023-04-21T09:34:41;96927.34;;;14.58;62.27
56894;BME280;43392;50.078;13.704;2023-04-21T09:37:10;96923.94;;;14.67;62.27
56894;BME280;43392;50.078;13.704;2023-04-21T09:39:37;96909.00;;;14.83;61.93
56894;BME280;43392;50.078;13.704;2023-04-21T09:42:04;96912.09;;;14.90;60.92
56894;BME280;43392;50.078;13.704;2023-04-21T09:44:31;96906.41;;;14.91;61.97
56894;BME280;43392;50.078;13.704;2023-04-21T09:46:59;96905.88;;;15.03;62.32
56894;BME280;43392;50.078;13.704;2023-04-21T09:49:29;96902.13;;;15.12;60.82
56894;BME280;43392;50.078;13.704;2023-04-21T09:51:58;96898.28;;;15.27;60.62
56894;BME280;43392;50.078;13.704;2023-04-21T09:54:29;96901.34;;;15.34;58.25
56894;BME280;43392;50.078;13.704;2023-04-21T09:56:58;96906.31;;;15.41;59.55
56894;BME280;43392;50.078;13.704;2023-04-21T09:59:31;96900.56;;;15.56;58.69
56894;BME280;43392;50.078;13.704;2023-04-21T10:01:59;96897.66;;;15.74;58.41
56894;BME280;43392;50.078;13.704;2023-04-21T10:04:27;96897.28;;;15.89;57.73
56894;BME280;43392;50.078;13.704;2023-04-21T10:06:54;96900.47;;;15.91;55.99
56894;BME280;43392;50.078;13.704;2023-04-21T10:09:24;96902.91;;;16.02;56.13
56894;BME280;43392;50.078;13.704;2023-04-21T10:11:53;96895.59;;;16.02;55.10
56894;BME280;43392;50.078;13.704;2023-04-21T10:14:20;96896.19;;;16.30;56.20
56894;BME280;43392;50.078;13.704;2023-04-21T10:16:55;96899.25;;;16.45;55.32
56894;BME280;43392;50.078;13.704;2023-04-21T10:19:23;96885.25;;;16.43;53.83
56894;BME280;43392;50.078;13.704;2023-04-21T10:21:50;96889.69;;;16.39;53.01
56894;BME280;43392;50.078;13.704;2023-04-21T10:24:20;96893.16;;;16.31;53.92
56894;BME280;43392;50.078;13.704;2023-04-21T10:26:49;96888.28;;;16.42;52.40
56894;BME280;43392;50.078;13.704;2023-04-21T10:29:27;96886.53;;;16.46;54.86
56894;BME280;43392;50.078;13.704;2023-04-21T10:31:55;96880.06;;;16.55;52.70
56894;BME280;43392;50.078;13.704;2023-04-21T10:34:28;96877.34;;;16.64;54.19
56894;BME280;43392;50.078;13.704;2023-04-21T10:39:50;96876.09;;;16.79;54.60
56894;BME280;43392;50.078;13.704;2023-04-21T10:42:21;96878.50;;;16.80;53.41
56894;BME280;43392;50.078;13.704;2023-04-21T10:45:09;96876.25;;;16.56;52.05
56894;BME280;43392;50.078;13.704;2023-04-21T10:47:41;96868.06;;;16.48;53.65
56894;BME280;43392;50.078;13.704;2023-04-21T10:50:17;96870.25;;;16.37;53.10
56894;BME280;43392;50.078;13.704;2023-04-21T10:52:51;96867.31;;;16.56;53.18
56894;BME280;43392;50.078;13.704;2023-04-21T10:55:19;96866.88;;;16.88;52.93
56894;BME280;43392;50.078;13.704;2023-04-21T10:57:47;96868.81;;;17.05;52.32
56894;BME280;43392;50.078;13.704;2023-04-21T11:00:16;96855.44;;;17.17;50.94
56894;BME280;43392;50.078;13.704;2023-04-21T11:02:43;96858.44;;;17.33;49.77
56894;BME280;43392;50.078;13.704;2023-04-21T11:05:17;96848.88;;;17.09;51.39
56894;BME280;43392;50.078;13.704;2023-04-21T11:07:45;96854.63;;;17.16;51.41
56894;BME280;43392;50.078;13.704;2023-04-21T11:10:12;96857.19;;;17.04;53.73
56894;BME280;43392;50.078;13.704;2023-04-21T11:12:39;96855.09;;;16.93;53.29
56894;BME280;43392;50.078;13.704;2023-04-21T11:15:10;96844.25;;;16.76;54.19
56894;BME280;43392;50.078;13.704;2023-04-21T11:17:37;96852.34;;;16.58;53.73
56894;BME280;43392;50.078;13.704;2023-04-21T11:20:08;96859.03;;;16.52;53.93
56894;BME280;43392;50.078;13.704;2023-04-21T11:22:35;96848.41;;;16.73;53.59
56894;BME280;43392;50.078;13.704;2023-04-21T11:25:03;96854.41;;;16.62;54.32
56894;BME280;43392;50.078;13.704;2023-04-21T11:27:30;96850.38;;;16.50;51.60
56894;BME280;43392;50.078;13.704;2023-04-21T11:29:57;96848.16;;;16.44;51.91
56894;BME280;43392;50.078;13.704;2023-04-21T11:32:25;96848.91;;;16.36;53.59
56894;BME280;43392;50.078;13.704;2023-04-21T11:34:51;96843.34;;;16.32;53.55
56894;BME280;43392;50.078;13.704;2023-04-21T11:37:23;96842.50;;;16.71;53.33
56894;BME280;43392;50.078;13.704;2023-04-21T11:39:56;96845.84;;;17.11;55.06
56894;BME280;43392;50.078;13.704;2023-04-21T11:42:23;96833.59;;;17.05;52.02
56894;BME280;43392;50.078;13.704;2023-04-21T11:44:49;96834.22;;;16.93;50.97
56894;BME280;43392;50.078;13.704;2023-04-21T11:47:17;96833.13;;;16.86;52.18
56894;BME280;43392;50.078;13.704;2023-04-21T11:49:47;96839.47;;;17.07;50.19
56894;BME280;43392;50.078;13.704;2023-04-21T11:52:24;96835.16;;;16.89;50.79
56894;BME280;43392;50.078;13.704;2023-04-21T11:54:56;96829.91;;;16.75;51.03
56894;BME280;43392;50.078;13.704;2023-04-21T11:57:23;96830.56;;;16.64;50.61
56894;BME280;43392;50.078;13.704;2023-04-21T11:59:50;96830.22;;;16.65;51.27
56894;BME280;43392;50.078;13.704;2023-04-21T12:02:22;96830.56;;;16.98;51.48
56894;BME280;43392;50.078;13.704;2023-04-21T12:05:11;96828.97;;;16.97;52.42
56894;BME280;43392;50.078;13.704;2023-04-21T12:07:41;96826.75;;;17.07;50.83
56894;BME280;43392;50.078;13.704;2023-04-21T12:10:09;96835.00;;;17.28;51.37
56894;BME280;43392;50.078;13.704;2023-04-21T12:12:37;96828.44;;;17.38;51.19
56894;BME280;43392;50.078;13.704;2023-04-21T12:15:05;96821.56;;;17.57;50.01
56894;BME280;43392;50.078;13.704;2023-04-21T12:17:38;96827.19;;;17.90;49.56
56894;BME280;43392;50.078;13.704;2023-04-21T12:20:09;96826.78;;;17.79;49.93
56894;BME280;43392;50.078;13.704;2023-04-21T12:22:37;96824.91;;;17.63;50.22
56894;BME280;43392;50.078;13.704;2023-04-21T12:25:04;96818.53;;;17.42;47.44
56894;BME280;43392;50.078;13.704;2023-04-21T12:27:31;96821.75;;;17.35;47.42
56894;BME280;43392;50.078;13.704;2023-04-21T12:29:58;96817.13;;;17.27;47.97
56894;BME280;43392;50.078;13.704;2023-04-21T12:32:25;96816.34;;;17.27;47.73
56894;BME280;43392;50.078;13.704;2023-04-21T12:34:51;96813.91;;;17.59;48.27
56894;BME280;43392;50.078;13.704;2023-04-21T12:37:18;96814.97;;;17.75;46.68
56894;BME280;43392;50.078;13.704;2023-04-21T12:39:46;96819.31;;;17.68;47.64
56894;BME280;43392;50.078;13.704;2023-04-21T12:42:13;96823.19;;;17.58;45.57
56894;BME280;43392;50.078;13.704;2023-04-21T12:44:39;96811.22;;;17.51;46.26
56894;BME280;43392;50.078;13.704;2023-04-21T12:47:06;96810.91;;;17.61;46.14
56894;BME280;43392;50.078;13.704;2023-04-21T12:49:33;96816.16;;;17.49;46.66
56894;BME280;43392;50.078;13.704;2023-04-21T12:51:59;96813.16;;;17.24;45.94
56894;BME280;43392;50.078;13.704;2023-04-21T12:54:26;96808.56;;;17.08;47.53
56894;BME280;43392;50.078;13.704;2023-04-21T12:56:54;96808.09;;;16.97;47.37
56894;BME280;43392;50.078;13.704;2023-04-21T12:59:22;96808.09;;;16.97;47.20
56894;BME280;43392;50.078;13.704;2023-04-21T13:01:49;96806.63;;;17.08;48.02